Gene Autry, OK (73436)

2:29 AM CDT on September 28, 2016 (GMT -0500)
Ardmore Airpark | | Change Station

Elev 732 ft 34.30 °N, 97.03 °W | Updated 2 minutes ago

Mist
Mist
57.2 °F
Feels Like 57.2 °F
N
0.0
Wind Variable Wind from SW
Gusts 0.0 mph

Today
High -- | Low -- °F
--% Chance of Precip.
Yesterday
High -- | Low -- °F
Precip. -- in
Pressure 30.02 in
Visibility 1.8 miles
Clouds
Dew Point 54 °F
Humidity 88%
Rainfall 0.00 in
Snow Depth Not available.
7:20 AM 7:15 PM
Waning Crescent, 7% visible
METAR KADM 280715Z AUTO 00000KT 1 3/4SM BR VV007 12/12 A3002 RMK AO2 VIS 1/2V5 T01240124
Pressure 30.02 in
Visibility 1.8 miles
Clouds
Dew Point 54 °F
Humidity 88%
Rainfall 0.00 in
Snow Depth Not available.
7:20 AM 7:15 PM
Waning Crescent, 7% visible
METAR KADM 280715Z AUTO 00000KT 1 3/4SM BR VV007 12/12 A3002 RMK AO2 VIS 1/2V5 T01240124

10-Day Weather Forecast

Almanac

Astronomy

Sep. 28, 2016 Rise Set
Actual Time
Civil Twilight
Nautical Twilight
Astronomical Twilight
Moon
Length of Visible Light
Length of Day
Tomorrow will be .
, % of the Moon is Illuminated

Today's Extremes

State Highs State Lows

Community

WunderPhotos

Upload Photos

1,942,216 photos uploaded!

WunderBlog® & News

Nearby

Air Quality

  Air Quality AQ Index Pollutant
Not available.

Snow Depth

Station Depth Elevation

Earthquake Activity

City Distance Mag. Time & Date
Minimum magnitude displayed is 2.5.

Coastal Water Temperatures

Place Temperature

Stations

Nearby Weather Stations

Station Location Temp. Windchill Dew Point Humidity Wind Precip. Elev Updated Type
                   

Watches & Warnings

There are currently no watches in effect.